createdAt,value
2022-08-28T00:01:33.678Z,100.00
2022-08-28T00:06:36.255Z,100.00
2022-08-28T00:11:39.548Z,100.00
2022-08-28T00:16:42.539Z,100.00
2022-08-28T00:21:46.183Z,100.00
2022-08-28T00:27:07.317Z,100.00
2022-08-28T00:32:09.873Z,100.00
2022-08-28T00:37:12.568Z,98.68
2022-08-28T00:42:15.339Z,98.44
2022-08-28T00:47:17.975Z,96.93
2022-08-28T00:52:24.360Z,97.99
2022-08-28T00:57:28.764Z,100.00
2022-08-28T01:02:32.383Z,100.00
2022-08-28T01:07:35.639Z,100.00
2022-08-28T01:12:38.930Z,100.00
2022-08-28T01:17:46.196Z,100.00
2022-08-28T01:23:15.829Z,100.00
2022-08-28T01:28:18.622Z,100.00
2022-08-28T01:33:28.100Z,100.00
2022-08-28T01:38:30.837Z,100.00
2022-08-28T01:43:33.767Z,100.00
2022-08-28T01:48:40.425Z,100.00
2022-08-28T01:53:46.444Z,100.00
2022-08-28T01:58:49.262Z,100.00
2022-08-28T02:03:53.187Z,99.74
2022-08-28T02:08:55.844Z,100.00
2022-08-28T02:13:59.247Z,99.35
2022-08-28T02:19:02.907Z,97.89
2022-08-28T02:24:05.630Z,97.66
2022-08-28T02:29:08.120Z,96.66
2022-08-28T02:34:11.538Z,95.74
2022-08-28T02:39:14.084Z,94.14
2022-08-28T02:44:17.400Z,97.05
2022-08-28T02:49:19.936Z,96.34
2022-08-28T02:54:22.531Z,97.00
2022-08-28T02:59:25.166Z,96.39
2022-08-28T03:04:28.703Z,96.57
2022-08-28T03:09:31.416Z,94.70
2022-08-28T03:14:34.347Z,94.37
2022-08-28T03:19:36.817Z,96.19
2022-08-28T03:24:39.435Z,96.50
2022-08-28T03:29:42.192Z,95.65
2022-08-28T03:34:45.092Z,95.95
2022-08-28T03:39:47.650Z,94.64
2022-08-28T03:44:50.166Z,95.65
2022-08-28T03:49:59.171Z,96.42
2022-08-28T03:55:01.858Z,95.58
2022-08-28T04:00:08.896Z,95.11
2022-08-28T04:05:14.845Z,93.86
2022-08-28T04:10:17.382Z,95.31
2022-08-28T04:15:21.371Z,95.57
2022-08-28T04:20:24.201Z,95.58
2022-08-28T04:25:27.339Z,94.83
2022-08-28T04:30:29.879Z,96.74
2022-08-28T04:35:32.341Z,96.04
2022-08-28T04:40:38.220Z,94.43
2022-08-28T04:45:45.544Z,94.74
2022-08-28T04:50:49.334Z,93.62
2022-08-28T04:55:54.986Z,93.78
2022-08-28T05:00:58.064Z,92.35
2022-08-28T05:06:00.547Z,92.13
2022-08-28T05:11:32.913Z,92.06
2022-08-28T05:16:46.715Z,91.75
2022-08-28T05:21:49.867Z,93.81
2022-08-28T05:26:52.395Z,93.42
2022-08-28T05:31:55.007Z,93.66
2022-08-28T05:36:58.260Z,93.47
2022-08-28T05:42:00.934Z,93.69
2022-08-28T05:47:03.493Z,93.97
2022-08-28T05:52:06.177Z,92.33
2022-08-28T05:57:08.639Z,91.57
2022-08-28T06:02:11.346Z,92.08
2022-08-28T06:07:15.522Z,91.80
2022-08-28T06:12:18.285Z,90.85
2022-08-28T06:17:23.576Z,90.44
2022-08-28T06:22:26.743Z,90.58
2022-08-28T06:27:30.080Z,89.88
2022-08-28T06:32:32.627Z,90.62
2022-08-28T06:37:35.155Z,89.79
2022-08-28T06:42:37.669Z,89.57
2022-08-28T06:47:40.169Z,89.25
2022-08-28T06:52:42.637Z,89.38
2022-08-28T06:57:45.105Z,88.79
2022-08-28T07:02:47.603Z,87.77
2022-08-28T07:07:50.164Z,88.09
2022-08-28T07:12:52.649Z,88.11
2022-08-28T07:17:55.138Z,88.46
2022-08-28T07:22:59.607Z,87.21
2022-08-28T07:28:02.366Z,86.45
2022-08-28T07:33:04.883Z,86.03
2022-08-28T07:38:07.358Z,88.40
2022-08-28T07:43:28.544Z,87.31
2022-08-28T07:48:30.996Z,86.81
2022-08-28T07:53:36.533Z,85.64
2022-08-28T07:58:39.557Z,86.15
2022-08-28T08:03:42.289Z,85.62
2022-08-28T08:08:46.383Z,85.44
2022-08-28T08:13:50.965Z,84.36
2022-08-28T08:18:54.151Z,83.87
2022-08-28T08:23:56.767Z,84.45
2022-08-28T08:29:00.248Z,84.13
2022-08-28T08:34:04.670Z,84.50
2022-08-28T08:39:09.763Z,83.67
2022-08-28T08:44:21.382Z,83.84
2022-08-28T08:49:31.543Z,82.43
2022-08-28T08:54:34.283Z,83.60
2022-08-28T08:59:39.156Z,84.16
2022-08-28T09:05:06.872Z,82.67
2022-08-28T09:10:13.759Z,81.48
2022-08-28T09:15:28.584Z,77.64
2022-08-28T09:20:33.098Z,70.90
2022-08-28T09:26:03.918Z,68.61
2022-08-28T09:31:09.892Z,68.19
2022-08-28T09:36:27.761Z,75.30
2022-08-28T09:41:49.577Z,76.40
2022-08-28T09:46:52.515Z,76.20
2022-08-28T09:51:57.893Z,73.24
2022-08-28T09:57:03.666Z,75.40
2022-08-28T10:02:24.898Z,77.53
2022-08-28T10:07:31.169Z,70.71
2022-08-28T10:12:40.184Z,66.87
2022-08-28T10:17:58.366Z,65.04
2022-08-28T10:23:19.420Z,69.51
2022-08-28T10:28:49.133Z,70.71
2022-08-28T10:34:20.515Z,61.56
2022-08-28T10:39:26.025Z,55.25
2022-08-28T10:45:04.632Z,52.43
2022-08-28T10:50:40.162Z,61.69
2022-08-28T10:55:55.209Z,54.47
2022-08-28T11:01:04.663Z,61.00
2022-08-28T11:06:15.307Z,61.99
2022-08-28T11:11:46.837Z,60.52
2022-08-28T11:16:50.270Z,60.14
2022-08-28T11:22:02.284Z,61.55
2022-08-28T11:27:23.282Z,53.79
2022-08-28T11:32:28.845Z,52.45
2022-08-28T11:37:43.978Z,47.55
2022-08-28T11:42:50.199Z,46.73
2022-08-28T11:47:56.718Z,49.07
2022-08-28T11:53:27.363Z,49.53
2022-08-28T11:58:54.579Z,48.06
2022-08-28T12:04:08.472Z,49.90
2022-08-28T12:09:32.207Z,53.80
2022-08-28T12:14:41.163Z,57.66
2022-08-28T12:20:04.206Z,59.43
2022-08-28T12:25:31.917Z,61.42
2022-08-28T12:30:42.265Z,64.21
2022-08-28T12:35:45.055Z,66.13
2022-08-28T12:40:50.887Z,66.91
2022-08-28T12:45:56.812Z,64.64
2022-08-28T12:51:08.302Z,66.07
2022-08-28T12:56:17.139Z,67.50
2022-08-28T13:01:32.764Z,67.10
2022-08-28T13:06:38.649Z,63.52
2022-08-28T13:11:46.941Z,53.32
2022-08-28T13:16:49.521Z,51.41
2022-08-28T13:22:00.561Z,49.55
2022-08-28T13:27:24.407Z,50.09
2022-08-28T13:32:28.261Z,53.61
2022-08-28T13:37:53.319Z,60.44
2022-08-28T13:43:07.128Z,59.29
2022-08-28T13:48:11.197Z,53.35
2022-08-28T13:53:14.757Z,55.77
2022-08-28T13:58:17.905Z,51.10
2022-08-28T14:03:36.750Z,47.75
2022-08-28T14:08:40.828Z,48.68
2022-08-28T14:13:47.115Z,49.73
2022-08-28T14:19:00.257Z,48.89
2022-08-28T14:24:03.585Z,47.40
2022-08-28T14:29:08.889Z,47.96
2022-08-28T14:34:13.818Z,49.74
2022-08-28T14:39:17.000Z,46.61
2022-08-28T14:44:21.738Z,49.27
2022-08-28T14:49:25.950Z,50.49
2022-08-28T14:54:29.102Z,51.56
2022-08-28T14:59:33.116Z,51.39
2022-08-28T15:04:38.122Z,52.83
2022-08-28T15:09:42.105Z,53.86
2022-08-28T15:14:54.943Z,50.11
2022-08-28T15:20:04.915Z,50.29
2022-08-28T15:25:07.676Z,49.84
2022-08-28T15:30:11.627Z,52.03
2022-08-28T15:35:14.465Z,54.52
2022-08-28T15:40:36.238Z,55.67
2022-08-28T15:45:40.742Z,56.06
2022-08-28T15:50:43.857Z,57.59
2022-08-28T15:55:46.770Z,59.02
2022-08-28T16:00:50.132Z,60.51
2022-08-28T16:05:52.847Z,60.99
2022-08-28T16:10:56.296Z,61.56
2022-08-28T16:15:59.097Z,61.94
2022-08-28T16:21:04.934Z,63.29
2022-08-28T16:26:09.309Z,64.47
2022-08-28T16:31:19.214Z,64.24
2022-08-28T16:36:25.513Z,64.48
2022-08-28T16:41:29.094Z,64.80
2022-08-28T16:46:34.583Z,65.40
2022-08-28T16:51:37.922Z,65.39
2022-08-28T16:56:40.514Z,65.70
2022-08-28T17:01:43.118Z,65.41
2022-08-28T17:06:46.000Z,65.70
2022-08-28T17:11:52.079Z,66.26
2022-08-28T17:16:54.934Z,66.10
2022-08-28T17:22:16.449Z,66.23
2022-08-28T17:27:22.466Z,66.91
2022-08-28T17:32:25.967Z,66.34
2022-08-28T17:37:29.177Z,66.64
2022-08-28T17:42:31.728Z,66.94
2022-08-28T17:47:34.440Z,67.39
2022-08-28T17:52:37.171Z,67.27
2022-08-28T17:57:40.077Z,67.38
2022-08-28T18:02:43.370Z,67.00
2022-08-28T18:07:46.071Z,67.65
2022-08-28T18:12:48.925Z,67.85
2022-08-28T18:17:51.854Z,67.64
2022-08-28T18:22:54.409Z,68.00
2022-08-28T18:27:57.221Z,68.51
2022-08-28T18:33:00.533Z,69.51
2022-08-28T18:38:03.528Z,68.14
2022-08-28T18:43:06.085Z,64.11
2022-08-28T18:48:08.559Z,65.36
2022-08-28T18:53:11.034Z,67.80
2022-08-28T18:58:15.199Z,69.67
2022-08-28T19:03:18.290Z,69.08
2022-08-28T19:08:20.803Z,72.44
2022-08-28T19:13:23.507Z,72.99
2022-08-28T19:18:26.040Z,73.56
2022-08-28T19:23:28.923Z,74.38
2022-08-28T19:28:31.646Z,74.59
2022-08-28T19:33:34.744Z,74.34
2022-08-28T19:38:37.250Z,79.67
2022-08-28T19:43:43.414Z,76.09
2022-08-28T19:48:50.872Z,76.53
2022-08-28T19:53:58.366Z,73.63
2022-08-28T19:59:04.635Z,67.14
2022-08-28T20:04:08.309Z,69.80
2022-08-28T20:09:13.010Z,71.67
2022-08-28T20:14:17.565Z,70.01
2022-08-28T20:19:21.261Z,74.20
2022-08-28T20:24:25.177Z,68.24
2022-08-28T20:29:27.942Z,71.63
2022-08-28T20:34:30.679Z,72.34
2022-08-28T20:39:33.484Z,69.45
2022-08-28T20:44:36.469Z,70.22
2022-08-28T20:49:39.334Z,70.76
2022-08-28T20:54:42.469Z,78.22
2022-08-28T20:59:46.207Z,73.10
2022-08-28T21:04:49.321Z,75.79
2022-08-28T21:10:06.093Z,74.37
2022-08-28T21:15:12.647Z,68.40
2022-08-28T21:20:16.293Z,74.16
2022-08-28T21:25:22.060Z,75.72
2022-08-28T21:30:25.493Z,74.58
2022-08-28T21:35:33.005Z,70.41
2022-08-28T21:40:35.800Z,71.07
2022-08-28T21:45:38.487Z,73.92
2022-08-28T21:50:43.423Z,78.93
2022-08-28T21:55:53.873Z,77.63
2022-08-28T22:00:57.373Z,71.89
2022-08-28T22:06:00.215Z,75.01
2022-08-28T22:11:02.812Z,73.67
2022-08-28T22:16:06.563Z,76.50
2022-08-28T22:21:32.423Z,76.95
2022-08-28T22:26:35.802Z,76.48
2022-08-28T22:31:44.700Z,78.93
2022-08-28T22:36:48.680Z,75.29
2022-08-28T22:41:51.369Z,78.26
2022-08-28T22:46:54.067Z,76.26
2022-08-28T22:51:56.661Z,71.75
2022-08-28T22:56:59.352Z,70.31
2022-08-28T23:02:03.643Z,70.69
2022-08-28T23:07:06.959Z,72.14
2022-08-28T23:12:09.516Z,73.33
2022-08-28T23:17:12.093Z,71.81
2022-08-28T23:22:15.750Z,77.08
2022-08-28T23:32:41.352Z,79.22
2022-08-28T23:37:48.726Z,70.01
2022-08-28T23:42:55.710Z,79.63
2022-08-28T23:47:58.498Z,73.52
2022-08-28T23:53:05.038Z,73.56
2022-08-28T23:58:07.518Z,75.73
